CYTQ

Tasiujaq Airport

Tasiujaq, Quebec, Canada
METAR CYTQ 211500Z 29010KT 10SM BKN014 M07/M11 A3036 RMK SC7 SLP287
Observed Flight Rules
Apr-21 @ 15:00 UTC (36 minutes ago) Marginal Visual Flight Rules
Wind Visibility Clouds
290° at 10 knots 10 miles
  • Broken at 1,400' AGL
Temperatures Readings
Current -7°C / 19°F
Dewpoint -11°C / 12°F
Humidity 73%
Altimeter 30.36" Hg
Pressure 1028.7 hPa
Elevation 31
METAR CYTQ 211500Z 29010KT 10SM BKN014 M07/M11 A3036 RMK SC7 SLP287
Observed Flight Rules
Apr-21 @ 15:00 UTC
(36 minutes ago)
MVFR
Wind Visibility
290° at 10 knots 10 miles
Clouds
  • Broken at 1,400' AGL
Temperature Dewpoint
-7°C / 19°F -11°C / 12°F
Humidity Altimeter Pressure
73% 30.36" Hg 1028.7 hPa